createdAt,value
2019-03-27T00:00:16.209Z,103061.61
2019-03-27T00:02:46.908Z,103067.25
2019-03-27T00:05:16.741Z,103062.09
2019-03-27T00:07:46.078Z,103062.75
2019-03-27T00:10:15.808Z,103056.05
2019-03-27T00:12:45.148Z,103056.40
2019-03-27T00:15:14.613Z,103055.09
2019-03-27T00:17:43.997Z,103052.31
2019-03-27T00:20:13.863Z,103053.20
2019-03-27T00:22:43.204Z,103056.06
2019-03-27T00:25:12.705Z,103050.19
2019-03-27T00:27:42.315Z,103059.98
2019-03-27T00:30:12.090Z,103057.36
2019-03-27T00:32:41.428Z,103066.60
2019-03-27T00:35:11.007Z,103068.80
2019-03-27T00:37:40.405Z,103066.73
2019-03-27T00:40:09.970Z,103067.98
2019-03-27T00:42:39.306Z,103057.13
2019-03-27T00:45:09.373Z,103062.27
2019-03-27T00:47:38.958Z,103059.33
2019-03-27T00:50:09.222Z,103067.33
2019-03-27T00:52:38.905Z,103065.37
2019-03-27T00:55:09.771Z,103069.59
2019-03-27T00:57:39.128Z,103066.50
2019-03-27T01:00:26.599Z,103066.33
2019-03-27T01:02:56.004Z,103069.34
2019-03-27T01:05:25.352Z,103067.15
2019-03-27T01:07:54.973Z,103065.59
2019-03-27T01:10:24.302Z,103058.84
2019-03-27T01:12:54.776Z,103059.72
2019-03-27T01:15:24.108Z,103061.92
2019-03-27T01:17:53.443Z,103064.59
2019-03-27T01:20:23.115Z,103068.61
2019-03-27T01:22:52.546Z,103071.30
2019-03-27T01:25:22.132Z,103069.27
2019-03-27T01:27:51.746Z,103069.74
2019-03-27T01:30:21.163Z,103070.22
2019-03-27T01:32:50.500Z,103073.64
2019-03-27T01:35:19.834Z,103065.17
2019-03-27T01:37:49.473Z,103064.34
2019-03-27T01:40:18.806Z,103066.93
2019-03-27T01:42:48.141Z,103066.53
2019-03-27T01:45:17.779Z,103072.16
2019-03-27T01:47:47.112Z,103072.16
2019-03-27T01:50:16.452Z,103070.97
2019-03-27T01:52:45.807Z,103069.72
2019-03-27T01:55:15.123Z,103065.88
2019-03-27T01:57:44.788Z,103065.23
2019-03-27T02:00:14.565Z,103066.63
2019-03-27T02:02:43.893Z,103064.50
2019-03-27T02:05:13.435Z,103063.02
2019-03-27T02:07:42.776Z,103061.39
2019-03-27T02:10:13.559Z,103058.38
2019-03-27T02:12:42.885Z,103061.52
2019-03-27T02:15:12.666Z,103062.09
2019-03-27T02:17:42.236Z,103057.59
2019-03-27T02:20:12.012Z,103059.23
2019-03-27T02:22:41.344Z,103058.20
2019-03-27T02:25:10.750Z,103061.45
2019-03-27T02:27:40.084Z,103060.86
2019-03-27T02:30:09.977Z,103065.99
2019-03-27T02:32:39.314Z,103057.73
2019-03-27T02:35:08.653Z,103064.17
2019-03-27T02:37:37.987Z,103062.35
2019-03-27T02:40:08.338Z,103060.90
2019-03-27T02:42:37.996Z,103055.43
2019-03-27T02:45:07.512Z,103066.78
2019-03-27T02:47:36.874Z,103064.59
2019-03-27T02:50:07.846Z,103065.48
2019-03-27T02:52:37.186Z,103071.59
2019-03-27T02:55:07.613Z,103061.50
2019-03-27T02:57:36.934Z,103058.38
2019-03-27T03:00:11.950Z,103053.31
2019-03-27T03:02:41.277Z,103055.61
2019-03-27T03:05:11.258Z,103049.84
2019-03-27T03:07:40.587Z,103052.97
2019-03-27T03:10:10.865Z,103051.07
2019-03-27T03:12:40.197Z,103051.78
2019-03-27T03:15:10.086Z,103057.99
2019-03-27T03:17:39.417Z,103053.30
2019-03-27T03:20:09.288Z,103056.95
2019-03-27T03:22:38.671Z,103054.48
2019-03-27T03:25:08.844Z,103056.27
2019-03-27T03:27:38.187Z,103059.91
2019-03-27T03:30:09.719Z,103057.37
2019-03-27T03:32:39.043Z,103062.11
2019-03-27T03:35:08.919Z,103059.45
2019-03-27T03:37:38.246Z,103061.80
2019-03-27T03:40:08.429Z,103070.00
2019-03-27T03:42:37.765Z,103067.06
2019-03-27T03:45:07.545Z,103064.60
2019-03-27T03:47:36.866Z,103070.92
2019-03-27T03:50:09.347Z,103067.41
2019-03-27T03:52:38.946Z,103073.56
2019-03-27T03:55:08.525Z,103083.17
2019-03-27T03:57:38.209Z,103077.01
2019-03-27T04:00:08.292Z,103080.27
2019-03-27T04:02:37.620Z,103076.66
2019-03-27T04:05:07.888Z,103082.88
2019-03-27T04:07:38.307Z,103091.25
2019-03-27T04:10:07.913Z,103093.03
2019-03-27T04:12:37.246Z,103096.94
2019-03-27T04:15:07.504Z,103104.75
2019-03-27T04:17:36.845Z,103115.97
2019-03-27T04:20:07.520Z,103113.77
2019-03-27T04:22:36.922Z,103112.06
2019-03-27T04:25:07.196Z,103110.27
2019-03-27T04:27:36.583Z,103106.98
2019-03-27T04:30:08.517Z,103107.95
2019-03-27T04:32:38.940Z,103103.57
2019-03-27T04:35:08.432Z,103115.84
2019-03-27T04:37:37.984Z,103115.23
2019-03-27T04:40:07.849Z,103117.05
2019-03-27T04:42:37.181Z,103116.23
2019-03-27T04:45:07.090Z,103123.14
2019-03-27T04:47:36.525Z,103117.75
2019-03-27T04:50:07.187Z,103124.53
2019-03-27T04:52:36.520Z,103120.34
2019-03-27T04:55:07.690Z,103122.62
2019-03-27T04:57:37.020Z,103122.73
2019-03-27T05:00:07.686Z,103126.31
2019-03-27T05:02:37.021Z,103119.52
2019-03-27T05:05:07.650Z,103119.40
2019-03-27T05:07:37.068Z,103124.31
2019-03-27T05:10:06.638Z,103125.84
2019-03-27T05:12:38.843Z,103120.95
2019-03-27T05:15:08.451Z,103126.36
2019-03-27T05:17:45.672Z,103126.36
2019-03-27T05:20:09.301Z,103122.74
2019-03-27T05:22:38.717Z,103132.38
2019-03-27T05:25:08.607Z,103136.66
2019-03-27T05:27:38.920Z,103134.78
2019-03-27T05:30:08.687Z,103135.89
2019-03-27T05:32:38.084Z,103141.00
2019-03-27T05:35:07.483Z,103139.80
2019-03-27T05:37:36.824Z,103145.92
2019-03-27T05:40:07.792Z,103147.84
2019-03-27T05:42:37.417Z,103149.95
2019-03-27T05:45:07.179Z,103147.84
2019-03-27T05:47:36.534Z,103154.13
2019-03-27T05:50:06.610Z,103157.22
2019-03-27T05:52:35.943Z,103168.93
2019-03-27T05:55:06.819Z,103163.64
2019-03-27T05:57:36.147Z,103164.74
2019-03-27T06:00:07.194Z,103164.34
2019-03-27T06:02:36.517Z,103171.73
2019-03-27T06:05:06.592Z,103171.33
2019-03-27T06:07:35.922Z,103173.76
2019-03-27T06:10:06.600Z,103174.16
2019-03-27T06:12:35.930Z,103180.05
2019-03-27T06:15:06.704Z,103181.06
2019-03-27T06:17:36.034Z,103187.76
2019-03-27T06:20:07.181Z,103185.05
2019-03-27T06:22:36.511Z,103178.75
2019-03-27T06:25:07.651Z,103181.97
2019-03-27T06:27:37.316Z,103179.73
2019-03-27T06:30:07.493Z,103188.96
2019-03-27T06:32:37.093Z,103191.16
2019-03-27T06:35:08.838Z,103191.76
2019-03-27T06:37:38.415Z,103190.64
2019-03-27T06:40:08.182Z,103196.05
2019-03-27T06:42:37.513Z,103196.16
2019-03-27T06:45:07.385Z,103198.33
2019-03-27T06:47:36.712Z,103200.24
2019-03-27T06:50:07.482Z,103203.70
2019-03-27T06:52:36.900Z,103208.09
2019-03-27T06:55:08.065Z,103203.70
2019-03-27T06:57:37.394Z,103203.90
2019-03-27T07:00:08.936Z,103204.67
2019-03-27T07:02:38.313Z,103208.78
2019-03-27T07:05:08.029Z,103207.02
2019-03-27T07:07:37.360Z,103211.08
2019-03-27T07:10:07.865Z,103213.48
2019-03-27T07:12:38.128Z,103207.47
2019-03-27T07:15:08.976Z,103212.47
2019-03-27T07:17:38.419Z,103213.56
2019-03-27T07:20:08.485Z,103204.71
2019-03-27T07:22:37.818Z,103208.73
2019-03-27T07:25:08.797Z,103214.98
2019-03-27T07:27:38.130Z,103215.78
2019-03-27T07:30:08.215Z,103211.14
2019-03-27T07:32:37.541Z,103212.09
2019-03-27T07:35:07.523Z,103209.66
2019-03-27T07:37:37.825Z,103211.58
2019-03-27T07:40:08.216Z,103206.39
2019-03-27T07:42:37.539Z,103218.91
2019-03-27T07:45:08.423Z,103217.27
2019-03-27T07:47:37.754Z,103218.27
2019-03-27T07:50:07.728Z,103215.71
2019-03-27T07:52:37.060Z,103214.08
2019-03-27T07:55:18.762Z,103210.75
2019-03-27T07:57:37.860Z,103211.39
2019-03-27T08:00:13.663Z,103213.59
2019-03-27T08:02:43.168Z,103220.38
2019-03-27T08:05:13.062Z,103215.23
2019-03-27T08:07:42.491Z,103215.85
2019-03-27T08:10:12.165Z,103220.61
2019-03-27T08:12:41.976Z,103222.10
2019-03-27T08:15:11.645Z,103227.91
2019-03-27T08:17:40.991Z,103222.45
2019-03-27T08:20:10.964Z,103230.47
2019-03-27T08:22:40.337Z,103224.20
2019-03-27T08:25:10.109Z,103216.80
2019-03-27T08:27:39.444Z,103223.27
2019-03-27T08:30:12.069Z,103226.79
2019-03-27T08:32:41.451Z,103220.44
2019-03-27T08:35:11.524Z,103222.47
2019-03-27T08:37:40.961Z,103219.30
2019-03-27T08:40:11.032Z,103227.01
2019-03-27T08:42:40.468Z,103227.25
2019-03-27T08:45:10.877Z,103226.69
2019-03-27T08:47:40.213Z,103228.66
2019-03-27T08:50:10.890Z,103225.53
2019-03-27T08:52:40.219Z,103225.87
2019-03-27T08:55:13.416Z,103236.90
2019-03-27T08:57:41.149Z,103238.69
2019-03-27T09:00:13.165Z,103239.58
2019-03-27T09:02:42.511Z,103238.93
2019-03-27T09:05:12.453Z,103238.75
2019-03-27T09:07:41.780Z,103242.03
2019-03-27T09:10:13.350Z,103237.94
2019-03-27T09:12:42.682Z,103224.61
2019-03-27T09:15:12.680Z,103231.23
2019-03-27T09:17:43.083Z,103231.46
2019-03-27T09:20:12.944Z,103227.34
2019-03-27T09:22:42.272Z,103226.94
2019-03-27T09:25:11.828Z,103233.77
2019-03-27T09:27:41.156Z,103230.95
2019-03-27T09:30:12.960Z,103231.25
2019-03-27T09:32:43.375Z,103238.84
2019-03-27T09:35:13.215Z,103239.73
2019-03-27T09:37:42.633Z,103240.18
2019-03-27T09:40:12.330Z,103245.52
2019-03-27T09:42:41.663Z,103240.50
2019-03-27T09:45:13.098Z,103247.42
2019-03-27T09:47:42.482Z,103254.70
2019-03-27T09:50:12.151Z,103252.85
2019-03-27T09:52:41.476Z,103258.88
2019-03-27T09:55:10.896Z,103262.23
2019-03-27T09:57:40.299Z,103262.67
2019-03-27T10:00:10.560Z,103266.08
2019-03-27T10:02:39.895Z,103269.81
2019-03-27T10:05:09.818Z,103265.46
2019-03-27T10:07:39.420Z,103262.47
2019-03-27T10:10:09.080Z,103265.05
2019-03-27T10:12:38.413Z,103269.19
2019-03-27T10:15:08.375Z,103262.26
2019-03-27T10:17:37.705Z,103268.48
2019-03-27T10:20:07.678Z,103268.12
2019-03-27T10:22:37.000Z,103261.90
2019-03-27T10:25:07.668Z,103262.30
2019-03-27T10:27:37.001Z,103261.42
2019-03-27T10:30:07.668Z,103262.02
2019-03-27T10:32:37.005Z,103261.66
2019-03-27T10:35:07.001Z,103265.34
2019-03-27T10:37:36.364Z,103260.57
2019-03-27T10:40:07.968Z,103264.22
2019-03-27T10:42:37.307Z,103275.33
2019-03-27T10:45:07.369Z,103276.93
2019-03-27T10:47:36.774Z,103279.51
2019-03-27T10:50:17.453Z,103277.34
2019-03-27T10:52:38.328Z,103269.14
2019-03-27T10:55:08.130Z,103272.85
2019-03-27T10:57:37.478Z,103274.03
2019-03-27T11:00:09.723Z,103276.01
2019-03-27T11:02:40.239Z,103274.08
2019-03-27T11:05:09.849Z,103280.56
2019-03-27T11:07:39.157Z,103280.84
2019-03-27T11:10:09.832Z,103279.05
2019-03-27T11:12:39.580Z,103276.95
2019-03-27T11:15:09.550Z,103276.25
2019-03-27T11:17:39.138Z,103274.28
2019-03-27T11:20:09.203Z,103270.79
2019-03-27T11:22:38.617Z,103275.05
2019-03-27T11:25:08.178Z,103271.59
2019-03-27T11:27:37.542Z,103270.39
2019-03-27T11:30:09.510Z,103271.41
2019-03-27T11:32:38.844Z,103268.05
2019-03-27T11:35:09.683Z,103270.30
2019-03-27T11:37:39.022Z,103257.28
2019-03-27T11:40:08.677Z,103261.39
2019-03-27T11:42:38.073Z,103266.23
2019-03-27T11:45:09.380Z,103255.54
2019-03-27T11:47:38.704Z,103258.17
2019-03-27T11:50:09.740Z,103263.86
2019-03-27T11:52:39.066Z,103258.44
2019-03-27T11:55:08.728Z,103265.73
2019-03-27T11:57:38.357Z,103252.41
2019-03-27T12:00:11.484Z,103252.16
2019-03-27T12:02:41.139Z,103247.02
2019-03-27T12:05:10.699Z,103248.91
2019-03-27T12:07:40.032Z,103242.91
2019-03-27T12:10:10.088Z,103241.59
2019-03-27T12:12:39.421Z,103236.81
2019-03-27T12:15:09.091Z,103232.52
2019-03-27T12:17:38.408Z,103232.41
2019-03-27T12:20:07.961Z,103233.99
2019-03-27T12:22:37.298Z,103225.50
2019-03-27T12:25:06.860Z,103231.30
2019-03-27T12:27:36.193Z,103229.48
2019-03-27T12:30:07.261Z,103231.58
2019-03-27T12:32:36.718Z,103225.70
2019-03-27T12:35:06.379Z,103228.59
2019-03-27T12:37:35.700Z,103222.83
2019-03-27T12:40:11.364Z,103225.77
2019-03-27T12:42:37.603Z,103227.33
2019-03-27T12:45:07.571Z,103223.89
2019-03-27T12:47:36.899Z,103229.20
2019-03-27T12:50:08.535Z,103229.80
2019-03-27T12:52:37.944Z,103228.05
2019-03-27T12:55:08.041Z,103223.20
2019-03-27T12:57:37.367Z,103228.25
2019-03-27T13:00:09.804Z,103224.19
2019-03-27T13:02:39.156Z,103228.61
2019-03-27T13:05:08.457Z,103228.02
2019-03-27T13:07:49.514Z,103223.65
2019-03-27T13:10:09.481Z,103228.73
2019-03-27T13:12:39.882Z,103236.63
2019-03-27T13:15:09.380Z,103229.14
2019-03-27T13:17:38.705Z,103235.84
2019-03-27T13:20:08.882Z,103229.25
2019-03-27T13:22:38.649Z,103222.52
2019-03-27T13:25:09.362Z,103221.33
2019-03-27T13:27:39.605Z,103222.19
2019-03-27T13:30:09.685Z,103227.02
2019-03-27T13:32:39.007Z,103222.87
2019-03-27T13:35:09.442Z,103227.52
2019-03-27T13:37:38.760Z,103229.05
2019-03-27T13:40:09.793Z,103227.99
2019-03-27T13:42:39.123Z,103226.67
2019-03-27T13:45:08.971Z,103227.02
2019-03-27T13:47:38.525Z,103228.64
2019-03-27T13:50:12.951Z,103230.06
2019-03-27T13:52:40.848Z,103226.09
2019-03-27T13:55:10.727Z,103223.80
2019-03-27T13:57:40.049Z,103224.78
2019-03-27T14:00:12.688Z,103219.94
2019-03-27T14:02:42.014Z,103225.28
2019-03-27T14:05:12.548Z,103228.02
2019-03-27T14:07:41.872Z,103225.74
2019-03-27T14:10:11.640Z,103226.20
2019-03-27T14:12:40.964Z,103233.06
2019-03-27T14:15:10.976Z,103230.05
2019-03-27T14:17:40.307Z,103229.95
2019-03-27T14:20:10.388Z,103230.41
2019-03-27T14:22:39.712Z,103232.43
2019-03-27T14:25:10.440Z,103236.13
2019-03-27T14:27:39.763Z,103225.61
2019-03-27T14:30:12.528Z,103224.75
2019-03-27T14:32:41.847Z,103224.52
2019-03-27T14:35:11.462Z,103219.48
2019-03-27T14:37:40.785Z,103217.63
2019-03-27T14:40:10.458Z,103215.39
2019-03-27T14:42:39.777Z,103222.24
2019-03-27T14:45:09.644Z,103220.59
2019-03-27T14:47:38.969Z,103212.01
2019-03-27T14:50:09.445Z,103207.22
2019-03-27T14:52:38.834Z,103209.59
2019-03-27T14:55:08.512Z,103209.50
2019-03-27T14:57:38.374Z,103209.09
2019-03-27T15:00:09.742Z,103210.48
2019-03-27T15:02:39.208Z,103214.90
2019-03-27T15:05:09.249Z,103209.95
2019-03-27T15:07:38.578Z,103211.25
2019-03-27T15:10:09.252Z,103219.19
2019-03-27T15:12:38.833Z,103217.34
2019-03-27T15:15:09.686Z,103221.69
2019-03-27T15:17:39.138Z,103225.24
2019-03-27T15:20:10.931Z,103220.43
2019-03-27T15:22:40.551Z,103212.66
2019-03-27T15:25:10.672Z,103214.37
2019-03-27T15:27:41.017Z,103212.36
2019-03-27T15:30:13.461Z,103215.95
2019-03-27T15:32:43.056Z,103214.23
2019-03-27T15:35:12.521Z,103212.20
2019-03-27T15:37:41.855Z,103203.83
2019-03-27T15:40:13.321Z,103208.14
2019-03-27T15:42:43.307Z,103202.87
2019-03-27T15:45:12.793Z,103204.75
2019-03-27T15:47:42.113Z,103202.11
2019-03-27T15:50:11.512Z,103203.39
2019-03-27T15:52:41.643Z,103201.45
2019-03-27T15:55:11.212Z,103207.12
2019-03-27T15:57:40.778Z,103199.37
2019-03-27T16:00:11.917Z,103194.20
2019-03-27T16:02:41.325Z,103196.48
2019-03-27T16:05:11.976Z,103197.66
2019-03-27T16:07:41.307Z,103203.53
2019-03-27T16:10:10.906Z,103201.02
2019-03-27T16:12:40.243Z,103198.91
2019-03-27T16:15:10.505Z,103200.33
2019-03-27T16:17:39.838Z,103202.27
2019-03-27T16:20:10.104Z,103200.55
2019-03-27T16:22:49.891Z,103203.89
2019-03-27T16:25:10.605Z,103195.95
2019-03-27T16:27:40.914Z,103199.02
2019-03-27T16:30:11.375Z,103201.55
2019-03-27T16:32:40.761Z,103197.70
2019-03-27T16:35:10.158Z,103195.78
2019-03-27T16:37:39.479Z,103204.48
2019-03-27T16:40:08.946Z,103205.80
2019-03-27T16:42:38.269Z,103207.02
2019-03-27T16:45:08.339Z,103204.67
2019-03-27T16:47:37.973Z,103206.28
2019-03-27T16:50:08.209Z,103206.54
2019-03-27T16:52:37.535Z,103204.48
2019-03-27T16:55:08.112Z,103206.63
2019-03-27T16:57:37.443Z,103202.21
2019-03-27T17:00:10.771Z,103205.20
2019-03-27T17:02:40.098Z,103212.98
2019-03-27T17:05:09.501Z,103208.64
2019-03-27T17:07:39.153Z,103211.90
2019-03-27T17:10:09.822Z,103213.17
2019-03-27T17:12:39.149Z,103210.47
2019-03-27T17:15:08.722Z,103212.17
2019-03-27T17:17:38.058Z,103206.26
2019-03-27T17:20:12.297Z,103214.42
2019-03-27T17:22:41.695Z,103210.02
2019-03-27T17:25:11.195Z,103216.09
2019-03-27T17:27:40.520Z,103216.39
2019-03-27T17:30:11.297Z,103210.13
2019-03-27T17:32:40.789Z,103209.66
2019-03-27T17:35:10.390Z,103214.92
2019-03-27T17:37:39.700Z,103214.07
2019-03-27T17:40:09.999Z,103214.72
2019-03-27T17:42:39.334Z,103213.48
2019-03-27T17:45:09.110Z,103218.42
2019-03-27T17:47:38.512Z,103217.41
2019-03-27T17:50:08.222Z,103211.80
2019-03-27T17:52:38.426Z,103214.86
2019-03-27T17:55:08.737Z,103219.11
2019-03-27T17:57:38.403Z,103224.55
2019-03-27T18:00:09.845Z,103229.26
2019-03-27T18:02:39.232Z,103229.47
2019-03-27T18:05:08.840Z,103222.36
2019-03-27T18:07:38.280Z,103230.58
2019-03-27T18:10:08.275Z,103231.81
2019-03-27T18:12:37.701Z,103227.19
2019-03-27T18:15:07.841Z,103232.95
2019-03-27T18:17:37.156Z,103231.64
2019-03-27T18:20:06.878Z,103230.04
2019-03-27T18:22:36.207Z,103235.25
2019-03-27T18:25:07.285Z,103237.91
2019-03-27T18:27:36.620Z,103241.05
2019-03-27T18:30:08.772Z,103247.95
2019-03-27T18:32:38.347Z,103246.87
2019-03-27T18:35:07.968Z,103247.64
2019-03-27T18:37:37.297Z,103252.38
2019-03-27T18:40:07.065Z,103258.31
2019-03-27T18:42:37.415Z,103258.69
2019-03-27T18:45:07.399Z,103255.63
2019-03-27T18:47:37.688Z,103256.39
2019-03-27T18:50:07.943Z,103262.73
2019-03-27T18:52:37.229Z,103264.17
2019-03-27T18:55:07.784Z,103262.75
2019-03-27T18:57:37.189Z,103265.09
2019-03-27T19:00:08.470Z,103269.27
2019-03-27T19:02:38.813Z,103270.58
2019-03-27T19:05:08.704Z,103270.34
2019-03-27T19:07:38.109Z,103273.63
2019-03-27T19:10:08.200Z,103277.14
2019-03-27T19:12:37.537Z,103272.26
2019-03-27T19:15:07.408Z,103274.37
2019-03-27T19:17:36.737Z,103280.47
2019-03-27T19:20:07.015Z,103278.69
2019-03-27T19:22:36.359Z,103280.84
2019-03-27T19:25:07.397Z,103285.59
2019-03-27T19:27:37.701Z,103285.53
2019-03-27T19:30:08.982Z,103282.30
2019-03-27T19:32:38.398Z,103284.73
2019-03-27T19:35:09.130Z,103290.80
2019-03-27T19:37:38.531Z,103286.80
2019-03-27T19:40:08.125Z,103281.42
2019-03-27T19:42:37.833Z,103280.75
2019-03-27T19:45:07.328Z,103277.98
2019-03-27T19:47:37.151Z,103277.52
2019-03-27T19:50:07.419Z,103280.66
2019-03-27T19:52:36.973Z,103273.21
2019-03-27T19:55:06.462Z,103279.58
2019-03-27T19:57:35.799Z,103276.53
2019-03-27T20:00:10.142Z,103279.91
2019-03-27T20:02:39.681Z,103283.71
2019-03-27T20:05:09.555Z,103271.38
2019-03-27T20:07:38.885Z,103272.60
2019-03-27T20:10:09.197Z,103276.95
2019-03-27T20:12:38.533Z,103279.39
2019-03-27T20:15:12.104Z,103279.61
2019-03-27T20:17:39.808Z,103283.55
2019-03-27T20:20:09.988Z,103287.67
2019-03-27T20:22:39.324Z,103284.72
2019-03-27T20:25:09.490Z,103285.66
2019-03-27T20:27:39.077Z,103292.84
2019-03-27T20:30:14.434Z,103295.55
2019-03-27T20:32:44.034Z,103299.06
2019-03-27T20:35:13.447Z,103298.17
2019-03-27T20:37:42.779Z,103303.84
2019-03-27T20:40:13.999Z,103302.39
2019-03-27T20:42:44.302Z,103300.66
2019-03-27T20:45:14.048Z,103298.88
2019-03-27T20:47:43.434Z,103296.05
2019-03-27T20:50:13.013Z,103293.91
2019-03-27T20:52:42.339Z,103298.78
2019-03-27T20:55:12.019Z,103296.38
2019-03-27T20:57:41.347Z,103293.56
2019-03-27T21:00:12.897Z,103297.55
2019-03-27T21:02:42.618Z,103297.55
2019-03-27T21:05:12.103Z,103287.75
2019-03-27T21:07:41.527Z,103299.50
2019-03-27T21:10:11.006Z,103301.93
2019-03-27T21:12:40.354Z,103290.96
2019-03-27T21:15:10.124Z,103296.53
2019-03-27T21:17:39.684Z,103292.60
2019-03-27T21:20:09.861Z,103303.94
2019-03-27T21:22:39.188Z,103302.53
2019-03-27T21:25:09.875Z,103303.03
2019-03-27T21:27:39.341Z,103306.88
2019-03-27T21:30:09.449Z,103303.52
2019-03-27T21:32:38.856Z,103304.77
2019-03-27T21:35:08.670Z,103308.28
2019-03-27T21:37:38.001Z,103308.95
2019-03-27T21:40:08.578Z,103307.65
2019-03-27T21:42:38.911Z,103303.86
2019-03-27T21:45:10.394Z,103305.17
2019-03-27T21:47:39.728Z,103302.33
2019-03-27T21:50:10.510Z,103308.41
2019-03-27T21:52:40.066Z,103307.57
2019-03-27T21:55:21.899Z,103310.00
2019-03-27T21:57:41.066Z,103308.02
2019-03-27T22:00:10.851Z,103312.89
2019-03-27T22:02:40.221Z,103312.95
2019-03-27T22:05:09.599Z,103311.58
2019-03-27T22:07:38.949Z,103317.52
2019-03-27T22:10:09.024Z,103322.00
2019-03-27T22:12:38.778Z,103313.23
2019-03-27T22:15:08.972Z,103319.23
2019-03-27T22:17:38.646Z,103323.11
2019-03-27T22:20:08.733Z,103328.15
2019-03-27T22:22:38.057Z,103326.27
2019-03-27T22:25:08.038Z,103326.78
2019-03-27T22:27:37.376Z,103332.70
2019-03-27T22:30:08.776Z,103332.97
2019-03-27T22:32:38.147Z,103329.78
2019-03-27T22:35:08.327Z,103334.50
2019-03-27T22:37:37.664Z,103337.45
2019-03-27T22:40:07.438Z,103334.29
2019-03-27T22:42:36.775Z,103330.68
2019-03-27T22:45:07.347Z,103330.68
2019-03-27T22:47:37.018Z,103334.20
2019-03-27T22:50:08.652Z,103331.52
2019-03-27T22:52:38.369Z,103330.68
2019-03-27T22:55:08.179Z,103339.23
2019-03-27T22:57:37.514Z,103339.44
2019-03-27T23:00:13.760Z,103340.75
2019-03-27T23:02:44.785Z,103332.47
2019-03-27T23:05:14.286Z,103341.59
2019-03-27T23:07:43.618Z,103338.81
2019-03-27T23:10:13.190Z,103335.53
2019-03-27T23:12:42.828Z,103343.72
2019-03-27T23:15:12.327Z,103333.65
2019-03-27T23:17:41.765Z,103343.39
2019-03-27T23:20:11.284Z,103342.74
2019-03-27T23:22:40.670Z,103345.37
2019-03-27T23:25:10.482Z,103350.00
2019-03-27T23:27:39.892Z,103343.72
2019-03-27T23:30:10.492Z,103342.77
2019-03-27T23:32:40.120Z,103349.16
2019-03-27T23:35:09.519Z,103348.53
2019-03-27T23:37:38.866Z,103336.11
2019-03-27T23:40:09.544Z,103341.19
2019-03-27T23:42:38.882Z,103334.22
2019-03-27T23:45:09.053Z,103335.89
2019-03-27T23:47:38.774Z,103338.25
2019-03-27T23:50:09.848Z,103338.16
2019-03-27T23:52:40.378Z,103341.39
2019-03-27T23:55:09.843Z,103335.10
2019-03-27T23:57:39.190Z,103332.80
